Terminal Aerodrome Forecast
Issued by NWS

Home | Current Version | Previous Version | Text Only | Print | Product List | Glossary On
Versions: 1 2 3 4 5 6 7 8 9 10 11 12 13 14 15 16 17 18 19 20 21 22 23 24 25 26 27 28 29 30 31 32 33 34 35 36
000
FTUS43 KGLD 040826 AAD
TAFMCK
TAF AMD
KMCK 040826Z 0408/0506 06006KT 1 1/2SM BR BKN002
     FM041000 09005KT 1/2SM FG VV001
     FM041400 12005KT 4SM BR BKN010
     FM041700 16008KT P6SM VCTS BKN035CB
      TEMPO 0417/0421 3SM TSRA BKN025CB
     FM042100 16009KT P6SM VCTS BKN070CB
     FM050000 15011KT P6SM BKN250
     FM050300 12009KT P6SM BKN250=

USA.gov is the U.S. government's official web portal to all federal, state and local government web resources and services.